Sisseton, SD

10:55 PM CDT on August 28, 2014 (GMT -0500)
Ortonville Municipal-Martinson | Change Station
CLOSE
Current Station
Airport
Location: Ortonville,
Elevation: 1099 ft
Nearby Weather Stations

Elev 1099 ft 45.31 °N, 96.42 °W | Updated 21 minutes ago

Overcast
Overcast
66 °F
Feels Like 66 °F
N
6
Wind Variable Wind from ESE

Today
High -- | Low -- °F
--% Chance of Precip.
Yesterday
High -- | Low -- °F
Precip. -- in
6:44 AM 8:13 PM
Waxing Crescent, 11% visible
Pressure 29.85 in
Visibility 1.5 miles
Clouds Overcast 300 ft
Dew Point 64 °F
Humidity 94%
Rainfall 0.54 in
Snow Depth Not available.
UV 0 out of 12
Pollen 9.30 out of 12
Air Quality Not available.
Flu Activity Not available.
METAR KVVV 290334Z AUTO 11005KT 1 1/2SM BR OVC003 19/18 A2985 RMK AO2

More Conditions Fewer Conditions

Pressure 29.85 in
Visibility 1.5 miles
Clouds Overcast 300 ft
Dew Point 64 °F
Humidity 94%
Rainfall 0.54 in
Snow Depth Not available.
UV 0 out of 12
Pollen 9.30 out of 12
Air Quality Not available.
Flu Activity Not available.
METAR KVVV 290334Z AUTO 11005KT 1 1/2SM BR OVC003 19/18 A2985 RMK AO2

More Conditions Fewer Conditions

10-Day Weather Forecast

Almanac

Astronomy

Aug. 28, 2014 Rise Set
Actual Time 6:44 AM CDT 8:13 PM CDT
Civil Twilight 6:13 AM CDT 8:44 PM CDT
Nautical Twilight 5:35 AM CDT 9:21 PM CDT
Astronomical Twilight 4:55 AM CDT 10:01 PM CDT
Moon 9:49 AM CDT (8/28) 9:25 PM CDT (8/28)
Length of Visible Light 14h 30m
Length of Day
13h 28m
Tomorrow will be 3m 4s shorter.
Waxing Crescent, 11% of the Moon is Illuminated
Today
Waxing Crescent
Sep 2
First Quarter
Sep 8
Full
Sep 15
Last Quarter
Sep 24
New

Today's Extremes

State Highs State Lows

Community

WunderPhotos

Upload Photos

1,748,182 photos uploaded!

Nearby

Snow Depth

Station Depth Elevation
Blind Park 0 in 6890 ft

Earthquake Activity

City Distance Mag. Time & Date
No recent earthquake activity has been reported nearby.
Minimum magnitude displayed is 2.5.

Coastal Water Temperatures

Place Temperature
No Stations Reporting

Nearby Weather Stations